createdAt,value
2022-10-11T00:04:07.568Z,101029.66
2022-10-11T00:09:16.462Z,101029.66
2022-10-11T00:14:22.483Z,101039.25
2022-10-11T00:19:44.832Z,101028.88
2022-10-11T00:25:33.448Z,101028.16
2022-10-11T00:30:50.309Z,101028.13
2022-10-11T00:36:10.782Z,101029.91
2022-10-11T00:41:29.520Z,101016.13
2022-10-11T00:46:58.724Z,101017.78
2022-10-11T00:52:29.361Z,101015.28
2022-10-11T00:57:54.993Z,101012.59
2022-10-11T01:03:15.431Z,101015.16
2022-10-11T01:08:34.309Z,101009.13
2022-10-11T01:14:21.443Z,101007.19
2022-10-11T01:20:09.413Z,100999.63
2022-10-11T01:25:38.378Z,101000.56
2022-10-11T01:31:06.686Z,100998.88
2022-10-11T01:36:31.805Z,100987.63
2022-10-11T01:41:55.182Z,100986.75
2022-10-11T01:47:15.249Z,100991.13
2022-10-11T01:52:43.819Z,100983.28
2022-10-11T01:58:16.683Z,100997.06
2022-10-11T02:03:53.488Z,100994.44
2022-10-11T02:09:22.475Z,100987.53
2022-10-11T02:14:50.530Z,100984.06
2022-10-11T02:20:15.805Z,100983.19
2022-10-11T02:25:37.767Z,100984.97
2022-10-11T02:31:01.841Z,100988.44
2022-10-11T02:36:44.066Z,100983.19
2022-10-11T02:42:11.407Z,100984.03
2022-10-11T02:47:33.472Z,100985.75
2022-10-11T02:53:05.027Z,100997.84
2022-10-11T02:58:21.932Z,100990.88
2022-10-11T03:03:42.352Z,100997.81
2022-10-11T03:09:00.376Z,101002.16
2022-10-11T03:14:20.232Z,101009.91
2022-10-11T03:19:40.509Z,100999.59
2022-10-11T03:25:03.610Z,101004.75
2022-10-11T03:30:26.928Z,101009.97
2022-10-11T03:35:48.928Z,101010.84
2022-10-11T03:41:09.995Z,101015.16
2022-10-11T03:46:31.843Z,101012.63
2022-10-11T03:51:50.145Z,101016.06
2022-10-11T03:57:13.874Z,101016.09
2022-10-11T04:02:39.307Z,101014.34
2022-10-11T04:08:01.576Z,101030.84
2022-10-11T04:13:21.646Z,101036.03
2022-10-11T04:18:42.438Z,101044.69
2022-10-11T04:24:00.730Z,101054.22
2022-10-11T04:29:21.679Z,101042.97
2022-10-11T04:34:40.668Z,101055.13
2022-10-11T04:40:02.816Z,101056.00
2022-10-11T04:45:23.274Z,101062.13
2022-10-11T04:50:41.488Z,101062.13
2022-10-11T04:56:02.248Z,101060.38
2022-10-11T05:01:22.768Z,101060.41
2022-10-11T05:06:40.582Z,101064.75
2022-10-11T05:12:00.277Z,101072.56
2022-10-11T05:17:20.361Z,101080.34
2022-10-11T05:22:40.077Z,101087.28
2022-10-11T05:27:59.692Z,101086.41
2022-10-11T05:33:19.779Z,101088.09
2022-10-11T05:38:40.260Z,101099.34
2022-10-11T05:43:59.159Z,101105.38
2022-10-11T05:49:19.604Z,101115.72
2022-10-11T05:54:41.066Z,101127.78
2022-10-11T06:00:03.693Z,101138.97
2022-10-11T06:05:30.288Z,101147.53
2022-10-11T06:10:54.175Z,101156.13
2022-10-11T06:16:19.529Z,101164.75
2022-10-11T06:21:39.157Z,101168.16
2022-10-11T06:26:57.254Z,101181.97
2022-10-11T06:32:48.853Z,101200.16
2022-10-11T06:38:34.687Z,101211.38
2022-10-11T06:44:15.254Z,101206.97
2022-10-11T06:49:37.656Z,101226.09
2022-10-11T06:54:57.536Z,101229.50
2022-10-11T07:00:18.016Z,101239.00
2022-10-11T07:05:50.654Z,101235.44
2022-10-11T07:11:33.039Z,101244.88
2022-10-11T07:17:13.623Z,101250.06
2022-10-11T07:22:53.071Z,101257.78
2022-10-11T07:28:27.698Z,101273.16
2022-10-11T07:34:06.955Z,101273.03
2022-10-11T07:39:25.932Z,101287.72
2022-10-11T07:45:00.759Z,101286.78
2022-10-11T07:50:19.348Z,101305.00
2022-10-11T07:55:40.558Z,101310.97
2022-10-11T08:01:48.101Z,101316.03
2022-10-11T08:07:07.905Z,101329.94
2022-10-11T08:12:44.790Z,101325.47
2022-10-11T08:18:33.608Z,101326.13
2022-10-11T08:24:10.934Z,101328.63
2022-10-11T08:29:30.322Z,101336.44
2022-10-11T08:34:51.287Z,101343.34
2022-10-11T08:40:16.540Z,101337.88
2022-10-11T08:45:40.648Z,101349.00
2022-10-11T08:50:52.195Z,101354.31
2022-10-11T08:55:58.499Z,101359.41
2022-10-11T09:01:12.345Z,101361.22
2022-10-11T09:06:36.965Z,101367.31
2022-10-11T09:12:02.429Z,101365.38
2022-10-11T09:17:24.207Z,101374.06
2022-10-11T09:22:43.595Z,101375.78
2022-10-11T09:28:13.497Z,101382.63
2022-10-11T09:33:33.383Z,101381.75
2022-10-11T09:38:47.802Z,101386.75
2022-10-11T09:43:54.368Z,101396.28
2022-10-11T09:49:06.217Z,101402.31
2022-10-11T09:54:12.126Z,101398.06
2022-10-11T09:59:30.158Z,101397.91
2022-10-11T10:04:55.411Z,101396.00
2022-10-11T10:10:22.253Z,101408.31
2022-10-11T10:15:32.204Z,101414.50
2022-10-11T10:20:40.693Z,101417.09
2022-10-11T10:25:51.409Z,101418.59
2022-10-11T10:30:59.637Z,101421.97
2022-10-11T10:36:20.709Z,101424.56
2022-10-11T10:41:27.333Z,101427.84
2022-10-11T10:46:52.911Z,101435.41
2022-10-11T10:52:21.985Z,101440.69
2022-10-11T10:57:32.931Z,101440.78
2022-10-11T11:10:20.943Z,101438.25
2022-10-11T11:15:42.805Z,101439.13
2022-10-11T11:28:20.688Z,101450.50
2022-10-11T11:33:58.300Z,101454.88
2022-10-11T11:39:08.858Z,101451.38
2022-10-11T11:44:27.566Z,101462.69
2022-10-11T11:49:41.256Z,101454.84
2022-10-11T11:55:00.164Z,101459.13
2022-10-11T12:00:20.453Z,101463.28
2022-10-11T12:05:32.768Z,101456.22
2022-10-11T12:10:55.935Z,101463.19
2022-10-11T12:16:14.539Z,101469.28
2022-10-11T12:21:30.646Z,101464.88
2022-10-11T12:26:44.684Z,101473.44
2022-10-11T12:32:51.817Z,101461.00
2022-10-11T12:38:20.292Z,101475.81
2022-10-11T12:44:20.947Z,101471.63
2022-10-11T12:50:28.371Z,101477.78
2022-10-11T12:55:53.476Z,101471.63
2022-10-11T13:01:23.602Z,101474.09
2022-10-11T13:06:39.724Z,101477.41
2022-10-11T13:11:52.572Z,101476.44
2022-10-11T13:17:09.189Z,101498.38
2022-10-11T13:22:23.257Z,101491.53
2022-10-11T13:27:30.614Z,101494.19
2022-10-11T13:32:38.844Z,101496.75
2022-10-11T13:37:49.082Z,101492.47
2022-10-11T13:42:56.616Z,101495.94
2022-10-11T13:48:03.586Z,101500.38
2022-10-11T13:53:26.393Z,101507.31
2022-10-11T13:58:39.114Z,101512.56
2022-10-11T14:03:50.442Z,101509.88
2022-10-11T14:08:59.577Z,101509.81
2022-10-11T14:14:31.575Z,101510.47
2022-10-11T14:19:38.864Z,101513.03
2022-10-11T14:24:49.729Z,101516.66
2022-10-11T14:30:20.250Z,101515.03
2022-10-11T14:35:26.168Z,101520.28
2022-10-11T14:40:34.299Z,101517.66
2022-10-11T14:45:40.621Z,101517.66
2022-10-11T14:50:51.742Z,101528.09
2022-10-11T14:55:59.261Z,101534.31
2022-10-11T15:01:08.018Z,101543.97
2022-10-11T15:06:20.946Z,101548.44
2022-10-11T15:11:28.801Z,101540.63
2022-10-11T15:16:36.234Z,101545.03
2022-10-11T15:21:42.435Z,101550.38
2022-10-11T15:26:51.162Z,101546.09
2022-10-11T15:31:57.228Z,101556.63
2022-10-11T15:37:07.828Z,101561.94
2022-10-11T15:42:15.145Z,101563.75
2022-10-11T15:47:21.319Z,101567.34
2022-10-11T15:52:27.342Z,101577.00
2022-10-11T15:57:34.945Z,101578.81
2022-10-11T16:02:41.395Z,101592.06
2022-10-11T16:07:47.423Z,101597.53
2022-10-11T16:12:54.935Z,101604.56
2022-10-11T16:18:02.721Z,101612.44
2022-10-11T16:23:10.378Z,101617.75
2022-10-11T16:28:18.191Z,101632.69
2022-10-11T16:33:24.550Z,101635.38
2022-10-11T16:38:30.544Z,101631.94
2022-10-11T16:43:38.060Z,101627.84
2022-10-11T16:48:43.906Z,101626.13
2022-10-11T16:53:49.880Z,101630.44
2022-10-11T17:00:10.254Z,101634.94
2022-10-11T17:12:28.540Z,101636.91
2022-10-11T17:17:34.847Z,101646.63
2022-10-11T17:22:41.854Z,101651.81
2022-10-11T17:27:49.782Z,101653.53
2022-10-11T17:32:56.455Z,101653.53
2022-10-11T17:38:06.117Z,101655.31
2022-10-11T17:43:16.153Z,101659.66
2022-10-11T17:48:23.687Z,101661.53
2022-10-11T17:53:30.829Z,101663.25
2022-10-11T17:58:39.298Z,101659.72
2022-10-11T18:03:46.492Z,101670.16
2022-10-11T18:08:53.406Z,101663.22
2022-10-11T18:14:01.922Z,101664.13
2022-10-11T18:19:11.912Z,101662.38
2022-10-11T18:24:19.238Z,101669.34
2022-10-11T18:29:27.049Z,101672.84
2022-10-11T18:34:35.739Z,101674.59
2022-10-11T18:39:41.985Z,101674.53
2022-10-11T18:44:50.022Z,101679.69
2022-10-11T18:49:58.376Z,101679.72
2022-10-11T18:55:09.175Z,101684.94
2022-10-11T19:00:40.039Z,101689.22
2022-10-11T19:05:47.178Z,101692.69
2022-10-11T19:10:53.453Z,101699.63
2022-10-11T19:16:08.785Z,101706.47
2022-10-11T19:21:15.917Z,101702.97
2022-10-11T19:26:24.662Z,101712.53
2022-10-11T19:31:35.539Z,101709.91
2022-10-11T19:36:43.095Z,101711.59
2022-10-11T19:41:50.157Z,101717.69
2022-10-11T19:47:47.449Z,101722.00
2022-10-11T19:53:18.637Z,101722.00
2022-10-11T19:58:26.007Z,101720.16
2022-10-11T20:04:00.651Z,101727.97
2022-10-11T20:09:32.854Z,101722.66
2022-10-11T20:15:04.305Z,101724.41
2022-10-11T20:20:13.740Z,101737.09
2022-10-11T20:25:20.864Z,101734.59
2022-10-11T20:30:27.643Z,101738.88
2022-10-11T20:35:35.997Z,101736.34
2022-10-11T20:40:48.310Z,101738.44
2022-10-11T20:46:07.601Z,101736.94
2022-10-11T20:51:15.193Z,101733.56
2022-10-11T20:56:25.588Z,101746.41
2022-10-11T21:01:37.287Z,101742.13
2022-10-11T21:06:46.624Z,101740.53
2022-10-11T21:12:41.861Z,101736.97
2022-10-11T21:17:48.525Z,101747.41
2022-10-11T21:22:57.691Z,101749.75
2022-10-11T21:28:09.311Z,101748.88
2022-10-11T21:33:18.216Z,101748.03
2022-10-11T21:39:16.818Z,101754.00
2022-10-11T21:44:23.202Z,101755.59
2022-10-11T21:49:30.751Z,101755.44
2022-10-11T21:54:39.751Z,101757.16
2022-10-11T21:59:49.293Z,101758.91
2022-10-11T22:05:00.493Z,101768.09
2022-10-11T22:10:08.971Z,101759.47
2022-10-11T22:16:31.014Z,101764.63
2022-10-11T22:21:41.288Z,101762.84
2022-10-11T22:26:52.154Z,101767.50
2022-10-11T22:32:02.333Z,101769.47
2022-10-11T22:37:08.605Z,101773.03
2022-10-11T22:42:16.306Z,101781.56
2022-10-11T22:47:47.903Z,101780.88
2022-10-11T22:53:19.693Z,101778.22
2022-10-11T22:58:54.298Z,101777.78
2022-10-11T23:04:00.825Z,101780.84
2022-10-11T23:09:07.487Z,101788.06
2022-10-11T23:14:15.802Z,101790.03
2022-10-11T23:20:36.627Z,101780.47
2022-10-11T23:26:32.065Z,101780.91
2022-10-11T23:31:41.627Z,101795.34
2022-10-11T23:37:37.538Z,101791.66
2022-10-11T23:42:44.680Z,101798.03
2022-10-11T23:47:52.579Z,101807.63
2022-10-11T23:52:58.953Z,101801.91
2022-10-11T23:58:06.158Z,101794.78
